Glen Innes, Australia
Current Conditions -  °F | °C
As of 9:00 PM on Saturday 25 Oct 2014 (Local Time) from YCFS Reporting Station
Clear Clear  
Wind Chill: 68°   Ceiling: Unl
Heat Index: 68°   Visibility: 4mi
Dew Point: 64°   Wind: 1mph
Humidity: 88%   Direction: 360°N
Pressure: 29.97"   Gusts: NA
Location:  29.74°S, 151.73°E
Report Text: YCFS 251000Z AUTO 36001KT 7000 // NCD 20/18 Q1015
Loading
Personal Weather Stations






























Interactive Weather Map
Tropical Storm Tracking
New forecast layout! Learn more

10-Day Weather Forecast

Advertisements
Track Severe Weather on mobile